Wilber, Nebraska
Current Conditions -  °F | °C
As of 9:55 PM on Saturday 20 Dec 2014 (Local Time) from KBIE Reporting Station
Haze Haze  
Wind Chill: 31°   Ceiling: Unl
Heat Index: 37°   Visibility: 5mi
Dew Point: 36°   Wind: 7mph
Humidity: 97%   Direction: 160°SSE
Pressure: 30.02"   Gusts: NA
Location:  40.48°N, 96.96°W
Report Text: KBIE 210355Z AUTO 16006KT 5SM BR CLR 03/02 A3002 RMK AO2 T00250020
Loading
Personal Weather Stations






























Interactive Weather Map New forecast layout! Learn more

10-Day Weather Forecast

Advertisements
Track Severe Weather on mobile